createdAt,value
2019-04-05T00:00:15.762Z,80.10
2019-04-05T00:02:45.309Z,81.10
2019-04-05T00:05:14.934Z,81.50
2019-04-05T00:07:44.495Z,82.30
2019-04-05T00:10:14.109Z,81.40
2019-04-05T00:12:43.651Z,80.80
2019-04-05T00:15:15.937Z,81.50
2019-04-05T00:17:45.516Z,80.80
2019-04-05T00:20:15.073Z,80.90
2019-04-05T00:22:44.650Z,81.30
2019-04-05T00:25:14.235Z,81.20
2019-04-05T00:27:43.809Z,80.50
2019-04-05T00:30:13.366Z,80.20
2019-04-05T00:32:42.930Z,80.70
2019-04-05T00:35:12.543Z,80.40
2019-04-05T00:37:42.134Z,80.70
2019-04-05T00:40:11.717Z,81.00
2019-04-05T00:42:41.291Z,79.80
2019-04-05T00:45:11.248Z,79.60
2019-04-05T00:47:40.858Z,79.10
2019-04-05T00:50:10.434Z,79.20
2019-04-05T00:52:40.017Z,79.80
2019-04-05T00:55:09.599Z,79.60
2019-04-05T00:57:39.172Z,78.70
2019-04-05T01:00:09.778Z,77.50
2019-04-05T01:02:39.342Z,76.50
2019-04-05T01:05:08.912Z,78.50
2019-04-05T01:07:38.602Z,78.00
2019-04-05T01:10:08.177Z,77.80
2019-04-05T01:12:38.005Z,79.20
2019-04-05T01:15:08.574Z,79.20
2019-04-05T01:17:39.365Z,78.60
2019-04-05T01:20:08.941Z,78.50
2019-04-05T01:22:38.503Z,77.80
2019-04-05T01:25:08.079Z,77.40
2019-04-05T01:27:38.978Z,76.90
2019-04-05T01:30:13.974Z,77.20
2019-04-05T01:32:43.545Z,77.70
2019-04-05T01:35:13.134Z,76.40
2019-04-05T01:37:42.803Z,76.90
2019-04-05T01:40:12.376Z,77.20
2019-04-05T01:42:42.813Z,76.50
2019-04-05T01:45:12.357Z,76.00
2019-04-05T01:47:41.930Z,76.00
2019-04-05T01:50:11.557Z,75.70
2019-04-05T01:52:41.315Z,75.20
2019-04-05T01:55:10.930Z,75.20
2019-04-05T01:57:40.497Z,74.90
2019-04-05T02:00:11.091Z,75.00
2019-04-05T02:02:40.680Z,75.40
2019-04-05T02:05:10.237Z,75.40
2019-04-05T02:07:39.856Z,75.80
2019-04-05T02:10:10.413Z,75.80
2019-04-05T02:12:39.983Z,76.80
2019-04-05T02:15:09.572Z,76.70
2019-04-05T02:17:39.118Z,77.00
2019-04-05T02:20:08.734Z,77.00
2019-04-05T02:22:38.285Z,77.60
2019-04-05T02:25:08.051Z,77.80
2019-04-05T02:27:38.621Z,78.20
2019-04-05T02:30:08.180Z,78.10
2019-04-05T02:32:37.779Z,78.20
2019-04-05T02:35:07.452Z,78.60
2019-04-05T02:37:37.324Z,78.40
2019-04-05T02:40:09.614Z,78.20
2019-04-05T02:42:39.186Z,78.50
2019-04-05T02:45:09.353Z,77.90
2019-04-05T02:47:39.502Z,77.90
2019-04-05T02:50:09.129Z,77.40
2019-04-05T02:52:38.690Z,77.50
2019-04-05T02:55:08.279Z,77.70
2019-04-05T02:57:37.965Z,77.80
2019-04-05T03:00:07.519Z,78.10
2019-04-05T03:02:37.408Z,79.00
2019-04-05T03:05:06.970Z,79.40
2019-04-05T03:07:36.596Z,80.30
2019-04-05T03:10:06.495Z,80.40
2019-04-05T03:12:36.141Z,80.60
2019-04-05T03:15:07.226Z,80.20
2019-04-05T03:17:36.794Z,80.70
2019-04-05T03:20:06.829Z,80.10
2019-04-05T03:22:36.390Z,80.00
2019-04-05T03:25:07.117Z,79.70
2019-04-05T03:27:37.186Z,79.70
2019-04-05T03:30:07.186Z,80.20
2019-04-05T03:32:36.775Z,79.70
2019-04-05T03:35:06.889Z,79.60
2019-04-05T03:37:36.491Z,79.30
2019-04-05T03:40:06.964Z,79.50
2019-04-05T03:42:36.626Z,79.10
2019-04-05T03:45:07.321Z,79.20
2019-04-05T03:47:36.907Z,79.20
2019-04-05T03:50:06.795Z,78.30
2019-04-05T03:52:36.363Z,78.60
2019-04-05T03:55:05.995Z,78.80
2019-04-05T03:57:35.585Z,78.10
2019-04-05T04:00:06.696Z,77.90
2019-04-05T04:02:36.317Z,77.40
2019-04-05T04:05:06.611Z,76.30
2019-04-05T04:07:36.205Z,76.80
2019-04-05T04:10:26.745Z,74.20
2019-04-05T04:12:56.388Z,73.20
2019-04-05T04:15:26.122Z,72.90
2019-04-05T04:17:55.693Z,72.60
2019-04-05T04:20:28.429Z,72.90
2019-04-05T04:22:57.974Z,73.20
2019-04-05T04:25:27.743Z,72.80
2019-04-05T04:27:57.326Z,73.30
2019-04-05T04:30:27.302Z,73.50
2019-04-05T04:32:57.034Z,73.70
2019-04-05T04:35:26.599Z,72.90
2019-04-05T04:37:56.184Z,72.70
2019-04-05T04:40:25.773Z,72.10
2019-04-05T04:42:55.654Z,72.80
2019-04-05T04:45:25.252Z,72.40
2019-04-05T04:47:54.828Z,73.10
2019-04-05T04:50:43.831Z,73.00
2019-04-05T04:53:13.410Z,71.90
2019-04-05T04:55:42.996Z,71.80
2019-04-05T04:58:12.581Z,72.00
2019-04-05T05:00:42.153Z,71.20
2019-04-05T05:03:12.633Z,71.40
2019-04-05T05:05:42.198Z,71.60
2019-04-05T05:08:11.769Z,71.50
2019-04-05T05:10:41.339Z,71.20
2019-04-05T05:13:10.892Z,70.80
2019-04-05T05:15:40.497Z,69.70
2019-04-05T05:18:10.069Z,66.20
2019-04-05T05:20:42.576Z,60.80
2019-04-05T05:23:10.855Z,58.30
2019-04-05T05:25:40.431Z,56.20
2019-04-05T05:28:11.102Z,55.30
2019-04-05T05:30:40.635Z,55.70
2019-04-05T05:33:10.232Z,55.30
2019-04-05T05:35:39.835Z,53.50
2019-04-05T05:38:09.426Z,52.40
2019-04-05T05:40:39.041Z,50.00
2019-04-05T05:43:08.653Z,47.80
2019-04-05T05:45:38.218Z,45.70
2019-04-05T05:48:07.810Z,44.40
2019-04-05T05:50:37.374Z,42.40
2019-04-05T05:53:08.082Z,43.60
2019-04-05T05:55:37.666Z,45.60
2019-04-05T05:58:07.348Z,46.70
2019-04-05T06:00:36.930Z,48.40
2019-04-05T06:03:06.580Z,50.20
2019-04-05T06:05:36.356Z,51.60
2019-04-05T06:08:05.974Z,53.10
2019-04-05T06:10:35.551Z,51.30
2019-04-05T06:13:07.155Z,51.30
2019-04-05T06:15:37.680Z,50.70
2019-04-05T06:18:07.638Z,49.40
2019-04-05T06:20:37.209Z,48.70
2019-04-05T06:23:06.787Z,48.50
2019-04-05T06:25:36.529Z,48.30
2019-04-05T06:28:06.086Z,45.30
2019-04-05T06:30:35.648Z,44.30
2019-04-05T06:33:05.231Z,42.20
2019-04-05T06:35:34.841Z,43.00
2019-04-05T06:38:04.423Z,43.60
2019-04-05T06:40:40.592Z,44.70
2019-04-05T06:43:06.674Z,44.40
2019-04-05T06:45:36.487Z,45.80
2019-04-05T06:48:18.346Z,45.30
2019-04-05T06:50:37.316Z,44.10
2019-04-05T06:53:06.942Z,45.10
2019-04-05T06:55:36.557Z,45.20
2019-04-05T06:58:06.221Z,45.00
2019-04-05T07:00:35.795Z,46.30
2019-04-05T07:03:05.378Z,47.80
2019-04-05T07:05:35.835Z,46.50
2019-04-05T07:08:05.408Z,46.70
2019-04-05T07:10:35.038Z,46.00
2019-04-05T07:13:04.903Z,45.50
2019-04-05T07:15:34.695Z,44.80
2019-04-05T07:18:04.274Z,43.10
2019-04-05T07:20:33.919Z,42.50
2019-04-05T07:23:03.625Z,41.90
2019-04-05T07:25:33.601Z,41.10
2019-04-05T07:28:03.215Z,41.40
2019-04-05T07:30:32.832Z,41.60
2019-04-05T07:33:02.371Z,42.90
2019-04-05T07:35:33.715Z,42.40
2019-04-05T07:38:03.627Z,42.70
2019-04-05T07:40:33.245Z,43.50
2019-04-05T07:43:02.823Z,43.70
2019-04-05T07:45:32.404Z,42.40
2019-04-05T07:48:01.989Z,40.30
2019-04-05T07:50:31.546Z,42.20
2019-04-05T07:53:01.185Z,41.50
2019-04-05T07:55:30.769Z,40.90
2019-04-05T07:58:00.330Z,39.90
2019-04-05T08:00:42.066Z,39.10
2019-04-05T08:03:11.742Z,40.30
2019-04-05T08:05:42.407Z,40.60
2019-04-05T08:08:15.113Z,39.00
2019-04-05T08:10:44.695Z,38.60
2019-04-05T08:13:14.370Z,40.10
2019-04-05T08:15:56.014Z,40.10
2019-04-05T08:18:25.594Z,39.30
2019-04-05T08:20:55.226Z,38.70
2019-04-05T08:23:24.783Z,40.80
2019-04-05T08:25:54.520Z,39.60
2019-04-05T08:28:24.106Z,39.70
2019-04-05T08:30:53.659Z,38.50
2019-04-05T08:33:23.262Z,35.60
2019-04-05T08:35:52.847Z,34.20
2019-04-05T08:38:22.438Z,33.10
2019-04-05T08:40:52.008Z,31.80
2019-04-05T08:43:21.578Z,31.40
2019-04-05T08:45:51.213Z,30.20
2019-04-05T08:48:20.790Z,29.00
2019-04-05T08:50:50.357Z,28.20
2019-04-05T08:53:21.027Z,27.90
2019-04-05T08:55:50.586Z,28.10
2019-04-05T08:58:32.637Z,26.80
2019-04-05T09:00:51.369Z,27.10
2019-04-05T09:03:21.010Z,26.30
2019-04-05T09:05:51.514Z,26.80
2019-04-05T09:08:21.485Z,26.20
2019-04-05T09:10:51.283Z,25.80
2019-04-05T09:13:22.329Z,25.60
2019-04-05T09:15:52.067Z,25.80
2019-04-05T09:18:23.255Z,25.50
2019-04-05T09:21:04.730Z,24.00
2019-04-05T09:23:36.529Z,22.80
2019-04-05T09:26:06.165Z,23.90
2019-04-05T09:28:35.740Z,23.00
2019-04-05T09:31:05.326Z,23.60
2019-04-05T09:33:34.917Z,23.10
2019-04-05T09:36:04.474Z,23.50
2019-04-05T09:38:35.229Z,24.00
2019-04-05T09:41:04.810Z,23.80
2019-04-05T09:43:34.375Z,23.30
2019-04-05T09:46:03.954Z,23.30
2019-04-05T09:48:33.545Z,23.80
2019-04-05T09:51:03.303Z,23.80
2019-04-05T09:53:32.875Z,22.60
2019-04-05T09:56:02.469Z,22.80
2019-04-05T09:58:32.051Z,23.40
2019-04-05T10:01:01.616Z,23.00
2019-04-05T10:03:31.215Z,22.60
2019-04-05T10:06:00.923Z,22.90
2019-04-05T10:08:30.522Z,22.70
2019-04-05T10:11:00.452Z,23.70
2019-04-05T10:13:30.053Z,24.20
2019-04-05T10:15:59.647Z,24.10
2019-04-05T10:18:29.220Z,22.30
2019-04-05T10:20:58.838Z,23.10
2019-04-05T10:23:28.420Z,21.70
2019-04-05T10:25:58.109Z,22.30
2019-04-05T10:28:27.693Z,22.50
2019-04-05T10:30:57.278Z,22.40
2019-04-05T10:33:26.919Z,21.80
2019-04-05T10:35:56.482Z,22.30
2019-04-05T10:38:26.066Z,23.10
2019-04-05T10:40:55.654Z,21.60
2019-04-05T10:43:25.231Z,22.20
2019-04-05T10:45:54.846Z,22.80
2019-04-05T10:48:24.399Z,22.50
2019-04-05T10:50:53.994Z,22.70
2019-04-05T10:53:23.581Z,23.40
2019-04-05T10:55:53.130Z,23.40
2019-04-05T10:58:22.745Z,23.70
2019-04-05T11:00:52.508Z,24.40
2019-04-05T11:03:22.106Z,26.40
2019-04-05T11:05:52.690Z,26.50
2019-04-05T11:08:22.282Z,27.60
2019-04-05T11:10:51.874Z,26.80
2019-04-05T11:13:21.453Z,26.50
2019-04-05T11:15:51.047Z,24.90
2019-04-05T11:18:20.624Z,25.10
2019-04-05T11:20:50.202Z,25.00
2019-04-05T11:23:21.432Z,26.10
2019-04-05T11:25:50.999Z,24.30
2019-04-05T11:28:20.724Z,23.00
2019-04-05T11:30:50.285Z,23.10
2019-04-05T11:33:20.155Z,22.70
2019-04-05T11:35:49.930Z,22.70
2019-04-05T11:38:19.513Z,22.20
2019-04-05T11:40:49.141Z,20.90
2019-04-05T11:43:18.698Z,20.70
2019-04-05T11:45:48.604Z,20.60
2019-04-05T11:48:19.470Z,21.70
2019-04-05T11:50:49.083Z,21.10
2019-04-05T11:53:21.787Z,21.70
2019-04-05T11:55:49.869Z,21.50
2019-04-05T11:58:19.459Z,20.70
2019-04-05T12:00:50.610Z,20.70
2019-04-05T12:03:21.759Z,20.50
2019-04-05T12:05:51.337Z,20.40
2019-04-05T12:08:20.907Z,21.00
2019-04-05T12:10:50.523Z,21.10
2019-04-05T12:13:20.078Z,20.20
2019-04-05T12:15:49.674Z,21.60
2019-04-05T12:18:19.658Z,21.40
2019-04-05T12:20:59.054Z,21.40
2019-04-05T12:23:20.963Z,21.60
2019-04-05T12:25:50.533Z,21.20
2019-04-05T12:28:20.095Z,21.00
2019-04-05T12:30:50.390Z,21.10
2019-04-05T12:33:20.448Z,22.60
2019-04-05T12:35:52.543Z,22.00
2019-04-05T12:38:32.453Z,23.60
2019-04-05T12:41:02.993Z,22.90
2019-04-05T12:43:32.661Z,24.00
2019-04-05T12:46:02.530Z,23.10
2019-04-05T12:48:32.095Z,24.40
2019-04-05T12:51:02.166Z,24.80
2019-04-05T12:53:32.902Z,23.60
2019-04-05T12:56:02.659Z,25.30
2019-04-05T12:58:32.933Z,26.40
2019-04-05T13:01:02.665Z,27.70
2019-04-05T13:03:32.229Z,27.60
2019-04-05T13:06:01.842Z,27.60
2019-04-05T13:08:31.410Z,28.30
2019-04-05T13:11:01.001Z,28.20
2019-04-05T13:13:30.566Z,28.60
2019-04-05T13:16:00.253Z,28.60
2019-04-05T13:18:31.610Z,30.50
2019-04-05T13:21:14.013Z,29.40
2019-04-05T13:23:35.995Z,29.10
2019-04-05T13:26:05.008Z,30.00
2019-04-05T13:28:34.661Z,29.80
2019-04-05T13:31:04.254Z,30.00
2019-04-05T13:33:33.811Z,31.80
2019-04-05T13:36:03.395Z,31.40
2019-04-05T13:38:35.280Z,32.10
2019-04-05T13:41:05.108Z,34.10
2019-04-05T13:43:34.685Z,36.20
2019-04-05T13:46:04.497Z,35.70
2019-04-05T13:48:34.072Z,37.00
2019-04-05T13:51:03.639Z,37.40
2019-04-05T13:53:33.218Z,39.40
2019-04-05T13:56:02.796Z,40.20
2019-04-05T13:58:32.386Z,41.20
2019-04-05T14:01:01.957Z,42.20
2019-04-05T14:03:31.537Z,42.70
2019-04-05T14:06:01.113Z,43.80
2019-04-05T14:08:30.659Z,43.00
2019-04-05T14:11:00.308Z,43.70
2019-04-05T14:13:30.275Z,42.90
2019-04-05T14:15:59.858Z,43.20
2019-04-05T14:18:29.438Z,43.40
2019-04-05T14:20:59.027Z,43.10
2019-04-05T14:23:28.599Z,43.60
2019-04-05T14:25:59.907Z,43.30
2019-04-05T14:28:29.411Z,43.50
2019-04-05T14:31:02.184Z,42.80
2019-04-05T14:33:30.232Z,42.80
2019-04-05T14:35:59.818Z,43.60
2019-04-05T14:38:31.363Z,42.80
2019-04-05T14:41:00.666Z,42.60
2019-04-05T14:43:30.233Z,42.00
2019-04-05T14:46:02.663Z,42.80
2019-04-05T14:48:31.974Z,43.10
2019-04-05T14:51:01.677Z,41.30
2019-04-05T14:53:32.791Z,40.00
2019-04-05T14:56:02.551Z,39.60
2019-04-05T14:58:32.126Z,40.30
2019-04-05T15:01:01.771Z,39.70
2019-04-05T15:03:31.364Z,39.10
2019-04-05T15:06:00.923Z,38.40
2019-04-05T15:08:30.657Z,38.80
2019-04-05T15:11:00.203Z,38.40
2019-04-05T15:13:30.803Z,38.60
2019-04-05T15:16:00.412Z,38.50
2019-04-05T15:18:29.946Z,38.20
2019-04-05T15:20:59.512Z,39.60
2019-04-05T15:23:29.097Z,39.90
2019-04-05T15:25:59.534Z,40.10
2019-04-05T15:28:29.298Z,41.50
2019-04-05T15:30:59.091Z,41.90
2019-04-05T15:33:28.751Z,42.60
2019-04-05T15:36:02.827Z,42.90
2019-04-05T15:38:32.379Z,43.10
2019-04-05T15:41:02.062Z,43.40
2019-04-05T15:43:31.651Z,43.40
2019-04-05T15:46:01.319Z,43.90
2019-04-05T15:48:51.809Z,44.30
2019-04-05T15:51:24.154Z,44.00
2019-04-05T15:53:52.787Z,44.10
2019-04-05T15:56:22.377Z,43.60
2019-04-05T15:58:52.560Z,45.30
2019-04-05T16:01:22.446Z,43.80
2019-04-05T16:03:52.015Z,44.40
2019-04-05T16:06:21.616Z,44.30
2019-04-05T16:08:51.168Z,44.40
2019-04-05T16:11:20.752Z,45.30
2019-04-05T16:13:50.346Z,45.70
2019-04-05T16:16:19.899Z,46.30
2019-04-05T16:18:49.495Z,47.00
2019-04-05T16:21:19.078Z,47.00
2019-04-05T16:23:48.653Z,47.20
2019-04-05T16:26:19.219Z,50.30
2019-04-05T16:28:48.772Z,48.90
2019-04-05T16:31:18.414Z,48.50
2019-04-05T16:33:47.979Z,48.80
2019-04-05T16:36:17.563Z,49.50
2019-04-05T16:38:47.143Z,48.90
2019-04-05T16:41:16.698Z,51.40
2019-04-05T16:43:46.305Z,49.10
2019-04-05T16:46:15.904Z,50.70
2019-04-05T16:48:45.462Z,51.40
2019-04-05T16:51:15.039Z,51.50
2019-04-05T16:54:01.007Z,51.30
2019-04-05T16:56:30.606Z,51.10
2019-04-05T16:59:00.177Z,52.00
2019-04-05T17:01:29.755Z,53.30
2019-04-05T17:03:59.546Z,53.60
2019-04-05T17:06:29.101Z,55.70
2019-04-05T17:08:59.735Z,55.60
2019-04-05T17:11:29.309Z,56.20
2019-04-05T17:13:59.481Z,55.80
2019-04-05T17:16:29.732Z,55.10
2019-04-05T17:18:59.287Z,55.70
2019-04-05T17:21:28.894Z,56.40
2019-04-05T17:23:58.455Z,57.20
2019-04-05T17:26:29.104Z,58.40
2019-04-05T17:28:58.686Z,59.20
2019-04-05T17:31:28.248Z,61.00
2019-04-05T17:33:57.984Z,60.40
2019-04-05T17:36:27.551Z,62.60
2019-04-05T17:38:58.242Z,64.70
2019-04-05T17:41:27.824Z,64.10
2019-04-05T17:43:57.399Z,65.40
2019-04-05T17:46:27.045Z,66.00
2019-04-05T17:48:57.798Z,66.50
2019-04-05T17:51:27.394Z,68.00
2019-04-05T17:53:57.411Z,68.00
2019-04-05T17:56:26.974Z,69.10
2019-04-05T17:58:56.583Z,69.70
2019-04-05T18:01:26.263Z,70.30
2019-04-05T18:03:56.957Z,72.40
2019-04-05T18:06:26.879Z,70.50
2019-04-05T18:08:56.457Z,70.70
2019-04-05T18:11:26.058Z,70.30
2019-04-05T18:13:55.625Z,71.10
2019-04-05T18:16:25.234Z,71.50
2019-04-05T18:18:54.816Z,72.90
2019-04-05T18:21:24.414Z,73.10
2019-04-05T18:23:54.004Z,73.80
2019-04-05T18:26:23.560Z,73.20
2019-04-05T18:28:53.149Z,73.80
2019-04-05T18:31:22.728Z,75.30
2019-04-05T18:33:52.346Z,74.20
2019-04-05T18:36:21.898Z,75.50
2019-04-05T18:38:51.560Z,75.00
2019-04-05T18:41:21.119Z,74.90
2019-04-05T18:43:50.718Z,75.10
2019-04-05T18:46:20.333Z,74.90
2019-04-05T18:48:49.909Z,75.80
2019-04-05T18:51:19.493Z,75.50
2019-04-05T18:53:49.063Z,74.50
2019-04-05T18:56:18.610Z,75.80
2019-04-05T18:58:48.247Z,75.90
2019-04-05T19:01:18.807Z,76.00
2019-04-05T19:03:48.390Z,75.50
2019-04-05T19:06:17.980Z,77.60
2019-04-05T19:08:47.676Z,76.90
2019-04-05T19:11:17.279Z,78.40
2019-04-05T19:14:00.065Z,78.80
2019-04-05T19:16:18.293Z,78.20
2019-04-05T19:18:47.877Z,78.20
2019-04-05T19:21:17.448Z,78.30
2019-04-05T19:23:51.017Z,77.60
2019-04-05T19:26:18.217Z,77.00
2019-04-05T19:28:48.247Z,77.00
2019-04-05T19:48:57.519Z,71.20
2019-04-05T19:51:27.085Z,71.50
2019-04-05T19:54:01.221Z,71.10
2019-04-05T19:56:27.884Z,71.20
2019-04-05T19:58:57.430Z,71.10
2019-04-05T20:01:27.036Z,70.80
2019-04-05T20:03:59.047Z,69.30
2019-04-05T20:06:28.588Z,70.70
2019-04-05T20:08:58.324Z,70.00
2019-04-05T20:11:28.292Z,69.50
2019-04-05T20:13:57.895Z,68.70
2019-04-05T20:16:28.644Z,67.30
2019-04-05T20:18:59.471Z,67.50
2019-04-05T20:21:29.147Z,66.10
2019-04-05T20:23:58.733Z,66.10
2019-04-05T20:26:28.303Z,66.30
2019-04-05T20:28:57.874Z,67.90
2019-04-05T20:31:28.494Z,67.40
2019-04-05T20:33:58.061Z,68.10
2019-04-05T20:36:27.631Z,68.70
2019-04-05T20:38:57.204Z,69.20
2019-04-05T20:41:26.886Z,70.10
2019-04-05T20:43:56.486Z,70.50
2019-04-05T20:46:26.061Z,71.30
2019-04-05T20:48:55.614Z,71.80
2019-04-05T20:51:25.537Z,72.10
2019-04-05T20:53:55.082Z,71.90
2019-04-05T20:56:24.701Z,72.30
2019-04-05T20:58:54.275Z,73.20
2019-04-05T21:01:23.835Z,72.90
2019-04-05T21:03:53.396Z,73.80
2019-04-05T21:06:22.951Z,72.10
2019-04-05T21:08:52.564Z,70.20
2019-04-05T21:11:22.179Z,68.10
2019-04-05T21:13:51.770Z,68.40
2019-04-05T21:16:21.334Z,69.20
2019-04-05T21:18:50.898Z,69.70
2019-04-05T21:21:20.537Z,69.30
2019-04-05T21:23:50.102Z,69.10
2019-04-05T21:26:19.686Z,69.40
2019-04-05T21:28:49.263Z,69.20
2019-04-05T21:31:18.815Z,68.50
2019-04-05T21:33:48.404Z,67.20
2019-04-05T21:36:17.955Z,66.40
2019-04-05T21:38:47.609Z,66.00
2019-04-05T21:41:17.186Z,65.90
2019-04-05T21:43:46.778Z,66.00
2019-04-05T21:46:16.374Z,65.20
2019-04-05T21:48:45.954Z,64.50
2019-04-05T21:51:15.553Z,64.50
2019-04-05T21:53:47.366Z,63.50
2019-04-05T21:56:16.627Z,63.40
2019-04-05T21:58:46.220Z,64.00
2019-04-05T22:01:15.849Z,64.40
2019-04-05T22:03:45.445Z,64.20
2019-04-05T22:06:15.009Z,64.50
2019-04-05T22:08:44.620Z,64.40
2019-04-05T22:11:14.178Z,64.50
2019-04-05T22:13:44.757Z,64.40
2019-04-05T22:16:14.348Z,64.80
2019-04-05T22:18:43.934Z,64.50
2019-04-05T22:21:13.518Z,64.40
2019-04-05T22:23:43.075Z,64.90
2019-04-05T22:26:12.662Z,64.50
2019-04-05T22:28:42.252Z,64.90
2019-04-05T22:31:11.839Z,65.30
2019-04-05T22:33:41.427Z,63.90
2019-04-05T22:36:10.979Z,64.40
2019-04-05T22:38:40.594Z,64.30
2019-04-05T22:41:10.169Z,64.50
2019-04-05T22:43:39.911Z,63.70
2019-04-05T22:46:09.492Z,63.40
2019-04-05T22:48:39.062Z,63.40
2019-04-05T22:51:08.730Z,63.50
2019-04-05T22:53:38.295Z,63.10
2019-04-05T22:56:07.862Z,62.70
2019-04-05T22:58:37.449Z,62.90
2019-04-05T23:01:07.075Z,64.00
2019-04-05T23:03:36.729Z,63.80
2019-04-05T23:06:06.230Z,63.90
2019-04-05T23:08:36.778Z,63.40
2019-04-05T23:11:06.328Z,63.10
2019-04-05T23:13:35.918Z,62.70
2019-04-05T23:16:05.497Z,63.00
2019-04-05T23:18:35.019Z,63.50
2019-04-05T23:21:04.634Z,63.00
2019-04-05T23:23:34.195Z,63.30
2019-04-05T23:26:03.785Z,62.50
2019-04-05T23:28:33.365Z,63.30
2019-04-05T23:31:02.954Z,62.80
2019-04-05T23:33:32.550Z,62.90
2019-04-05T23:36:02.138Z,62.50
2019-04-05T23:38:31.705Z,63.00
2019-04-05T23:41:01.285Z,63.20
2019-04-05T23:43:30.852Z,63.00
2019-04-05T23:46:00.561Z,62.80
2019-04-05T23:48:30.125Z,62.50
2019-04-05T23:50:59.705Z,62.20
2019-04-05T23:53:29.402Z,62.80
2019-04-05T23:55:58.970Z,62.80
2019-04-05T23:58:28.555Z,62.90
